Pagina principale
METAR-TAF:

METAR-TAF

Aeroporti :

Aeroporto di Parma

Parma, Italia

latitudine: 44-49-17N, longitudine: 010-17-41E, altezza: 50 m

Osservazione

Il bollettino è stato emesso 29 minuti fa, alle 15:50 UTC
Vento 5 kt da est/nord-est, variando fra nord/nord-est e est
Temperature 24°C
Umidità 50%
Pressione 1014 hPa
Visibilità 10 km o più
Poco nuvoloso ad un'altezza di 2000 ft

METAR: LIMP 131550Z 06005KT 020V090 9999 FEW020 24/13 Q1014

Ora: 18:19 (16:19 UTC)

Previsione

Il bollettino è stato emesso 5 ore e 19 minuti fa, alle 11:00 UTC
Previsione valida dal 13 alle 12 UTC al 14 alle 12 UTC
Vento 5 kt da direzioni variabili
Visibilità 10 km o più
Poco nuvoloso ad un'altezza di 4000 ft
Nuvoloso ad un'altezza di 7000 ft
Temporaneamente
dal 13 alle 12 UTC al 13 alle 14 UTC
temporale, pioggia,

TAF: LIMP 131100Z 1312/1412 VRB05KT 9999 FEW040 BKN070 TEMPO 1312/1314 TSRA

Osservazioni e previsioni meteorologiche di più di 4000 aeroporti (messaggi METAR e TAF).

Le stazioni disponibili sono rappresentate dai dischi gialli e rossi sulla carta.

Puntare il mouse per vedere il nome della stazione.

Clicca sopra per visualizzare le osservazioni e previsioni meteorologiche.

Per cambiare la mappa : fare clic sui pulsanti verdi con una croce nera per ingrandire, il pulsante verde con un trattino per diminuire, o sulla freccia verde per le mappe adiacenti.


METAR-TAF: